Latest Weather Observations for Hamilton Island

IDQ60801

Issued at 7:05 am EST Thursday 31 July 2014 (issued every 30 minutes, with the page automatically refreshed every 10 minutes)

About weather observations | Map of weather stations | Latest weather observations for QLD | Other Formats
Station Details ID: 033106 Name: HAMILTON ISLAND AIRPORT Lat: -20.37 Lon: 148.95 Height: 58.66 m
Data from the previous 72 hours. | See also: Recent months at Hamilton Island
Date/Time
EST
Temp
°C
App
Temp
°C
Dew
Point
Rel
Hum
%
Delta-T
°C
Wind Press
QNH
hPa
Press
MSL
hPa
Rain
since 9 am
mm
Dir
 
Spd
km/h
Gust
km/h
Spd
kts
Gust
kts
31/07:00am 18.8 16.9 16.8 88 1.2 S 22 26 12 14 1019.7 - 0.2
31/06:51am 18.7 17.3 17.0 90 1.0 S 20 26 11 14 1019.6 - 0.2
31/06:30am 18.7 17.5 17.0 90 1.0 S 19 24 10 13 1019.5 - 0.2
31/06:29am 18.8 17.6 17.1 90 1.0 S 19 24 10 13 1019.5 - 0.2
31/06:00am 18.6 17.3 16.9 90 1.0 S 19 24 10 13 1019.2 1019.1 0.2
31/05:51am 18.5 17.0 16.8 90 1.0 S 20 24 11 13 1019.2 - 0.2
31/05:40am 18.7 16.8 16.8 89 1.1 S 22 26 12 14 1019.0 - 0.2
31/05:30am 18.7 17.2 16.8 89 1.1 S 20 28 11 15 1019.0 - 0.2
31/05:00am 19.0 18.2 17.1 89 1.2 S 17 20 9 11 1018.8 - 0.2
31/04:40am 18.9 17.5 17.0 89 1.2 S 20 24 11 13 1018.8 - 0.2
31/04:30am 18.9 17.8 17.2 90 1.0 S 19 22 10 12 1018.8 - 0.2
31/04:00am 18.8 17.6 17.1 90 1.0 S 19 24 10 13 1018.8 - 0.2
31/03:36am 18.9 17.2 17.2 90 1.0 S 22 30 12 16 1018.9 - 0.2
31/03:30am 18.8 17.1 17.1 90 1.0 SSE 22 28 12 15 1019.0 - 0.2
31/03:19am 19.0 17.5 16.8 87 1.3 S 20 26 11 14 1018.9 - 0.2
31/03:13am 19.5 17.8 17.1 86 1.5 S 22 26 12 14 1019.0 - 0.0
31/03:07am 19.4 17.9 16.8 85 1.6 S 20 26 11 14 1019.0 - 0.0
31/03:00am 19.5 18.2 16.9 85 1.6 S 19 24 10 13 1019.1 1019.0 0.0
31/02:47am 19.4 18.2 17.0 86 1.5 S 19 24 10 13 1019.2 - 0.0
31/02:30am 19.3 18.4 16.9 86 1.5 S 17 22 9 12 1019.2 - 0.0
31/02:00am 19.8 19.0 17.2 85 1.6 S 17 20 9 11 1019.5 - 0.0
31/01:30am 20.7 18.4 16.7 78 2.4 ESE 24 28 13 15 1019.8 - 0.0
31/01:00am 20.8 19.2 16.4 76 2.7 E 20 28 11 15 1019.8 - 0.0
31/12:30am 20.1 19.3 16.1 78 2.4 E 15 17 8 9 1020.1 - 0.0
31/12:00am 20.6 19.4 16.2 76 2.6 E 17 22 9 12 1020.1 1019.9 0.0
 
Date/Time
EST
Temp
°C
App
Temp
°C
Dew
Point
Rel
Hum
%
Delta-T
°C
Wind Press
QNH
hPa
Press
MSL
hPa
Rain
since 9 am
mm
Dir
 
Spd
km/h
Gust
km/h
Spd
kts
Gust
kts
30/11:30pm 20.5 18.5 16.5 78 2.4 ESE 22 26 12 14 1020.2 - 0.0
30/11:00pm 20.3 18.4 16.7 80 2.2 ESE 22 26 12 14 1020.4 - 0.0
30/10:30pm 20.2 18.6 16.4 79 2.3 ESE 20 24 11 13 1020.4 - 0.0
30/10:00pm 20.3 18.3 16.5 79 2.3 ESE 22 28 12 15 1020.6 - 0.0
30/09:30pm 20.1 17.6 16.1 78 2.4 ESE 24 32 13 17 1020.8 - 0.0
30/09:00pm 20.4 17.2 16.4 78 2.4 ESE 28 33 15 18 1020.7 1020.5 0.0
30/08:30pm 20.2 16.9 16.0 77 2.5 ESE 28 32 15 17 1020.5 - 0.0
30/08:00pm 20.3 16.4 15.5 74 2.9 ESE 30 33 16 18 1020.4 - 0.0
30/07:30pm 20.2 16.7 15.4 74 2.8 ESE 28 32 15 17 1020.2 - 0.0
30/07:00pm 20.4 16.5 15.4 73 3.0 ESE 30 35 16 19 1020.1 - 0.0
30/06:30pm 20.4 16.6 15.8 75 2.7 ESE 30 33 16 18 1019.8 - 0.0
30/06:00pm 20.3 17.0 16.1 77 2.5 ESE 28 32 15 17 1019.7 1019.5 0.0
30/05:30pm 20.3 17.4 16.1 77 2.5 SE 26 30 14 16 1019.6 - 0.0
30/05:00pm 20.4 17.8 16.0 76 2.6 SE 24 30 13 16 1019.6 - 0.0
30/04:30pm 20.7 17.6 15.5 72 3.1 SE 26 32 14 17 1019.4 - 0.0
30/04:00pm 20.9 17.5 15.7 72 3.1 SE 28 32 15 17 1019.2 - 0.0
30/03:30pm 21.1 17.9 15.4 70 3.4 SE 26 30 14 16 1019.2 - 0.0
30/03:00pm 21.5 18.1 15.8 70 3.4 SSE 28 32 15 17 1019.2 1019.1 0.0
30/02:30pm 21.6 18.8 15.4 68 3.7 SSE 24 28 13 15 1019.5 - 0.0
30/02:00pm 22.4 20.5 15.7 66 4.0 SE 20 24 11 13 1019.6 - 0.0
30/01:30pm 21.7 19.3 15.3 67 3.8 SSE 22 24 12 13 1019.9 - 0.0
30/01:00pm 21.5 18.8 14.6 65 4.1 SSE 22 26 12 14 1020.4 - 0.0
30/12:30pm 21.3 18.9 15.4 69 3.5 SSE 22 28 12 15 1020.9 - 0.0
30/12:00pm 21.1 17.9 15.4 70 3.4 SSE 26 30 14 16 1021.5 1021.3 0.0
30/11:30am 20.9 18.2 15.7 72 3.1 SSE 24 30 13 16 1022.0 - 0.0
30/11:00am 20.7 17.0 15.0 70 3.4 SSE 28 32 15 17 1022.4 - 0.0
30/10:30am 20.5 17.5 15.9 75 2.8 SSE 26 30 14 16 1022.7 - 0.0
30/10:00am 20.3 18.1 15.9 76 2.6 SSE 22 28 12 15 1022.9 - 0.0
30/09:30am 20.0 18.0 15.6 76 2.6 SSE 20 26 11 14 1023.0 - 0.0
30/09:00am 19.9 18.0 15.7 77 2.5 SSE 20 26 11 14 1022.8 1022.6 0.0
30/08:30am 19.6 17.6 15.5 77 2.4 SSE 20 26 11 14 1022.7 - 0.0
30/08:00am 19.4 17.4 15.5 78 2.3 SSE 20 28 11 15 1022.4 - 0.0
30/07:30am 18.9 17.4 15.4 80 2.1 S 17 26 9 14 1022.2 - 0.0
30/07:00am 18.0 15.4 14.9 82 1.8 S 22 26 12 14 1022.0 - 0.0
30/06:30am 17.7 15.1 15.0 84 1.6 S 22 26 12 14 1021.6 - 0.0
30/06:00am 17.7 15.5 15.0 84 1.6 S 20 26 11 14 1021.3 1021.1 0.0
30/05:30am 17.9 15.8 15.2 84 1.6 S 20 26 11 14 1021.1 - 0.0
30/05:00am 17.8 15.6 14.9 83 1.7 S 20 24 11 13 1021.1 - 0.0
30/04:30am 18.0 15.9 15.3 84 1.6 S 20 24 11 13 1020.8 - 0.0
30/04:00am 18.1 16.1 15.5 85 1.5 S 20 26 11 14 1020.7 - 0.0
30/03:30am 18.0 15.6 15.4 85 1.5 S 22 28 12 15 1020.7 - 0.0
30/03:12am 18.2 15.9 15.6 85 1.5 S 22 26 12 14 1020.7 - 0.0
30/03:00am 18.2 16.2 15.5 84 1.6 S 20 24 11 13 1020.8 1020.6 0.0
30/02:55am 18.3 16.4 15.7 85 1.5 S 20 24 11 13 1020.7 - 0.0
30/02:30am 18.6 16.9 16.2 86 1.4 S 20 24 11 13 1020.9 - 0.0
30/02:00am 18.7 16.3 16.3 86 1.4 S 24 28 13 15 1020.9 - 0.0
30/01:30am 18.8 17.2 16.6 87 1.3 S 20 26 11 14 1021.2 - 0.0
30/01:00am 19.3 17.0 15.6 79 2.2 SE 22 24 12 13 1021.2 - 0.0
30/12:30am 19.3 17.4 15.8 80 2.1 SSE 20 24 11 13 1021.5 - 0.0
30/12:00am 19.3 17.0 15.6 79 2.2 SSE 22 24 12 13 1021.5 1021.3 0.0
 
Date/Time
EST
Temp
°C
App
Temp
°C
Dew
Point
Rel
Hum
%
Delta-T
°C
Wind Press
QNH
hPa
Press
MSL
hPa
Rain
since 9 am
mm
Dir
 
Spd
km/h
Gust
km/h
Spd
kts
Gust
kts
29/11:30pm 19.0 17.0 15.5 80 2.1 SE 20 26 11 14 1021.8 - 0.0
29/11:00pm 19.1 16.7 15.4 79 2.2 SE 22 26 12 14 1021.9 - 0.0
29/10:30pm 19.3 16.4 15.2 77 2.4 SE 24 28 13 15 1021.8 - 0.0
29/10:00pm 19.5 16.6 15.0 75 2.6 SSE 24 28 13 15 1021.9 - 0.0
29/09:30pm 19.5 17.4 16.3 82 1.9 S 22 26 12 14 1022.0 - 0.0
29/09:00pm 19.7 17.8 14.3 71 3.1 SSE 17 20 9 11 1021.6 1021.4 0.0
29/08:30pm 19.5 18.3 14.1 71 3.1 ESE 13 15 7 8 1021.6 - 0.0
29/08:00pm 20.1 19.1 13.3 65 3.9 E 11 15 6 8 1021.3 - 0.0
29/07:30pm 20.1 18.1 14.0 68 3.5 E 17 19 9 10 1021.2 - 0.0
29/07:00pm 20.1 17.8 13.1 64 4.0 ESE 17 20 9 11 1021.2 - 0.0
29/06:30pm 20.2 18.0 13.2 64 4.0 ESE 17 20 9 11 1021.0 - 0.0
29/06:00pm 20.4 17.4 12.6 61 4.4 ESE 20 24 11 13 1020.6 1020.4 0.0
29/05:30pm 20.5 16.6 13.2 63 4.2 ESE 26 28 14 15 1020.3 - 0.0
29/05:00pm 21.1 17.1 13.0 60 4.6 ESE 26 30 14 16 1020.3 - 0.0
29/04:30pm 20.8 16.2 12.2 58 4.8 ESE 28 32 15 17 1020.2 - 0.0
29/04:00pm 21.0 17.3 13.9 64 4.1 ESE 26 32 14 17 1020.0 - 0.0
29/03:30pm 21.1 17.8 15.0 68 3.6 ESE 26 32 14 17 1020.0 - 0.0
29/03:00pm 21.3 17.7 15.2 68 3.6 ESE 28 32 15 17 1020.0 1019.8 0.0
29/02:30pm 21.6 18.2 15.7 69 3.5 ESE 28 33 15 18 1020.1 - 0.0
29/02:00pm 21.6 18.2 15.7 69 3.5 ESE 28 33 15 18 1020.4 - 0.0
29/01:30pm 21.9 18.8 15.7 68 3.7 SE 26 32 14 17 1020.8 - 0.0
29/01:00pm 22.4 19.5 16.0 67 3.9 SE 26 30 14 16 1021.1 - 0.0
29/12:30pm 22.0 18.5 15.4 66 3.9 SE 28 32 15 17 1021.3 - 0.0
29/12:00pm 22.3 18.4 15.4 65 4.1 SE 30 33 16 18 1021.8 1021.6 0.0
29/11:30am 22.0 17.5 14.9 64 4.2 SE 32 35 17 19 1022.0 - 0.0
29/11:00am 21.0 18.4 16.0 73 3.0 SSE 24 30 13 16 1022.4 - 0.0
29/10:30am 22.0 18.8 16.3 70 3.5 SE 28 32 15 17 1022.5 - 0.0
29/10:00am 21.4 17.7 16.1 72 3.2 SSE 30 33 16 18 1022.7 - 0.0
29/09:30am 21.0 17.6 16.8 77 2.6 SSE 30 33 16 18 1022.9 - 0.0
29/09:00am 20.1 17.4 16.5 80 2.2 SSE 26 30 14 16 1022.9 1022.7 0.0
29/08:30am 20.0 18.2 17.0 83 1.8 SSE 22 28 12 15 1022.9 - 0.0
29/08:00am 19.3 17.2 16.3 83 1.8 S 22 30 12 16 1022.7 - 0.0
29/07:30am 18.8 17.0 15.9 83 1.7 S 20 28 11 15 1022.6 - 0.0
29/07:00am 18.2 16.4 16.0 87 1.3 S 20 28 11 15 1022.3 - 0.0
29/06:30am 17.9 15.3 15.9 88 1.2 S 24 28 13 15 1022.0 - 0.0
29/06:00am 18.2 16.4 15.6 85 1.5 S 19 22 10 12 1021.8 1021.6 0.0
29/05:30am 18.4 16.8 16.0 86 1.4 S 19 20 10 11 1021.7 - 0.0
29/05:00am 18.3 17.7 15.7 85 1.5 SW 13 19 7 10 1021.4 - 0.0
29/04:30am 18.1 16.7 15.5 85 1.5 S 17 19 9 10 1021.2 - 0.0
29/04:00am 18.8 19.4 15.3 80 2.1 SE 6 13 3 7 1021.1 - 0.0
29/03:30am 19.3 18.3 12.3 64 3.9 E 9 11 5 6 1021.1 - 0.0
29/03:00am 19.6 18.3 12.6 64 3.9 E 11 13 6 7 1021.1 1020.9 0.0
29/02:30am 19.7 17.7 12.7 64 3.9 E 15 19 8 10 1021.1 - 0.0
29/02:00am 19.9 17.4 13.4 66 3.7 E 19 22 10 12 1021.0 - 0.0
29/01:30am 20.3 17.1 13.0 63 4.2 E 22 26 12 14 1021.1 - 0.0
29/01:00am 20.3 17.2 13.3 64 4.0 E 22 26 12 14 1021.3 - 0.0
29/12:30am 20.4 16.9 13.4 64 4.0 E 24 26 13 14 1021.4 - 0.0
29/12:00am 20.3 16.9 13.7 66 3.8 E 24 30 13 16 1021.5 1021.3 0.0
 
Date/Time
EST
Temp
°C
App
Temp
°C
Dew
Point
Rel
Hum
%
Delta-T
°C
Wind Press
QNH
hPa
Press
MSL
hPa
Rain
since 9 am
mm
Dir
 
Spd
km/h
Gust
km/h
Spd
kts
Gust
kts
28/11:30pm 20.5 16.9 13.2 63 4.2 E 24 30 13 16 1021.6 - 0.0
28/11:00pm 20.6 16.7 13.3 63 4.2 E 26 30 14 16 1021.7 - 0.0
28/10:30pm 20.6 17.0 14.3 67 3.7 E 26 30 14 16 1021.7 - 0.0
28/10:00pm 19.9 18.6 16.7 82 1.9 SE 19 20 10 11 1021.9 - 0.0
28/09:30pm 19.6 18.1 16.3 81 2.0 SE 19 20 10 11 1022.1 - 0.0
28/09:00pm 19.8 17.6 15.9 78 2.3 ESE 22 26 12 14 1022.0 1021.8 0.0
28/08:30pm 19.9 17.7 16.0 78 2.3 ESE 22 26 12 14 1021.8 - 0.0
28/08:00pm 20.2 17.0 15.2 73 3.0 ESE 26 28 14 15 1021.5 - 0.0
28/07:30pm 20.5 16.4 13.7 65 3.9 ESE 28 33 15 18 1021.4 - 0.0
28/07:00pm 20.3 16.3 15.3 73 3.0 ESE 30 33 16 18 1021.0 - 0.0
28/06:30pm 20.5 15.9 14.6 69 3.5 ESE 32 35 17 19 1020.7 - 0.0
28/06:00pm 20.3 16.3 14.0 67 3.6 ESE 28 33 15 18 1020.5 1020.3 0.0
28/05:30pm 20.4 16.7 15.0 71 3.2 ESE 28 32 15 17 1020.4 - 0.0
28/05:00pm 20.6 17.4 15.2 71 3.2 ESE 26 30 14 16 1020.4 - 0.0
28/04:30pm 20.6 17.1 15.4 72 3.1 ESE 28 32 15 17 1020.4 - 0.0
28/04:00pm 20.9 17.6 16.1 74 2.9 ESE 28 32 15 17 1020.2 - 0.0
28/03:30pm 21.1 17.4 15.9 72 3.1 ESE 30 33 16 18 1020.0 - 0.0
28/03:00pm 21.4 18.0 16.8 75 2.8 SE 30 32 16 17 1020.1 1019.9 0.0
28/02:30pm 21.6 18.8 17.4 77 2.6 SE 28 30 15 16 1020.2 - 0.0
28/02:00pm 21.9 19.3 16.8 73 3.1 ESE 26 30 14 16 1020.5 - 0.0
28/01:30pm 22.0 20.1 17.6 76 2.7 SSE 24 28 13 15 1020.8 - 0.0
28/01:00pm 21.2 18.7 17.0 77 2.6 SSE 26 32 14 17 1021.2 - 0.0
28/12:30pm 21.2 18.7 18.0 82 2.0 SSE 28 32 15 17 1021.5 - 0.0
28/12:00pm 21.2 18.9 17.6 80 2.2 SSE 26 30 14 16 1021.9 1021.7 0.0
28/11:30am 21.2 17.8 17.8 81 2.1 SSE 32 35 17 19 1022.1 - 0.0
28/11:00am 21.3 19.1 17.9 81 2.1 SSE 26 30 14 16 1022.7 - 0.0
28/10:30am 20.8 18.0 17.4 81 2.1 SSE 28 33 15 18 1023.0 - 0.0
28/10:00am 20.7 18.4 17.5 82 2.0 SSE 26 30 14 16 1023.0 - 0.0
28/09:30am 20.3 17.7 16.9 81 2.1 SSE 26 32 14 17 1023.1 - 0.0
28/09:17am 20.3 17.4 17.1 82 2.0 SSE 28 32 15 17 1023.2 - 0.0
28/09:00am 20.2 17.4 17.4 84 1.7 SSE 28 33 15 18 1023.1 1022.9 0.2
28/08:30am 19.4 17.4 17.4 88 1.2 SSE 24 30 13 16 1022.9 - 0.2
28/08:00am 19.3 17.3 17.3 88 1.2 SSE 24 32 13 17 1022.7 - 0.2
28/07:30am 19.2 17.2 17.3 89 1.2 SSE 24 32 13 17 1022.4 - 0.2

Other Formats:

Comma delimited format used in spreadsheet applications
http://www.bom.gov.au/fwo/IDQ60801/IDQ60801.94368.axf

JavaScript Object Notation format (JSON) in row-major order
http://www.bom.gov.au/fwo/IDQ60801/IDQ60801.94368.json